Sukran S — TCKB — position and weather

sailwx.info

Track history (hours):
 
Tides and Currents Weather Stations Pressure Air Temp Water Temp Dewpoint Dewpoint Depression Visibility Wind Speed Wind Dir Waves Ship Positions

Sukran S

Last reported at 2016-Dec-01 14:05 UTC. Time now 2016-Dec-05 00:24 UTC.
Position N 40°60' E 029°00'.

Length 108 m; draft 5.8 m.

Type: Cargo ship. MMSI: 271000056.

Date/timePositionNaut miles runAvg speedWind from/ knotsBaromVisibWave heightAir tempDewpointWater temp
2016-Dec-01 14:05N 40°60' E 029°00'3 5.4
2016-Dec-01 13:31N 40°57' E 029°01'6 6.5
2016-Dec-01 12:33N 40°53' E 029°08'2 1.6
2016-Dec-01 11:29N 40°53' E 029°10'0 0.0
2016-Dec-01 10:28N 40°53' E 029°10'0 0.0
2016-Dec-01 09:29N 40°53' E 029°10'0 0.0
2016-Dec-01 08:30N 40°53' E 029°10'0 0.0
2016-Dec-01 07:31N 40°53' E 029°10'0 0.0
2016-Dec-01 06:12N 40°53' E 029°10'0 0.0
2016-Dec-01 05:31N 40°53' E 029°10'0 0.0
2016-Dec-01 04:17N 40°53' E 029°10'0 0.1
2016-Dec-01 03:30N 40°53' E 029°10'0 0.0
2016-Dec-01 02:26N 40°53' E 029°10'0 0.0
2016-Dec-01 00:29N 40°53' E 029°10'4 4.5
2016-Nov-30 23:34N 40°49' E 029°08'9 8.6
2016-Nov-30 22:34N 40°44' E 028°59'18 5.6
2016-Nov-30 19:22N 40°26' E 029°00'4 2.0
2016-Nov-30 17:27N 40°25' E 029°05'0 0.0
2016-Nov-30 16:32N 40°25' E 029°05'0 0.0
2016-Nov-30 14:13N 40°25' E 029°05'0 0.0
2016-Nov-30 13:14N 40°25' E 029°05'0 0.0
2016-Nov-30 11:29N 40°25' E 029°05'0 0.0
2016-Nov-30 07:25N 40°25' E 029°05'0 0.0
2016-Nov-30 06:08N 40°25' E 029°05'0 0.0
2016-Nov-30 05:24N 40°25' E 029°05'0 0.0
2016-Nov-30 04:30N 40°25' E 029°05'0 0.0
2016-Nov-30 03:12N 40°25' E 029°05'0 0.0
2016-Nov-30 01:09N 40°25' E 029°05'0 0.0
2016-Nov-29 23:27N 40°25' E 029°05'0 0.0
2016-Nov-29 22:33N 40°25' E 029°05'0 0.0
2016-Nov-29 17:05N 40°25' E 029°05'0 0.0
2016-Nov-29 16:08N 40°25' E 029°05'0 0.0
2016-Nov-29 15:26N 40°25' E 029°05'0 0.0
2016-Nov-29 09:29N 40°25' E 029°05'0 0.0
2016-Nov-29 07:30N 40°25' E 029°05'0 0.0
2016-Nov-29 06:33N 40°25' E 029°05'0 0.0
2016-Nov-29 05:20N 40°25' E 029°05'0 0.0
2016-Nov-29 04:26N 40°25' E 029°05'0 0.0
2016-Nov-29 03:32N 40°25' E 029°05'0 0.0
2016-Nov-29 02:18N 40°25' E 029°05'0 0.0
2016-Nov-29 00:22N 40°25' E 029°05'16 5.6
2016-Nov-28 21:31N 40°37' E 028°52'1111.3
2016-Nov-28 20:34N 40°45' E 029°02'1010.0
2016-Nov-28 19:33N 40°52' E 029°11'0 0.1
2016-Nov-28 18:33N 40°52' E 029°11'0 0.0
2016-Nov-28 17:32N 40°52' E 029°11'0 0.0
2016-Nov-28 16:17N 40°52' E 029°11'0 0.0
2016-Nov-28 15:15N 40°52' E 029°11'0 0.0
2016-Nov-28 14:30N 40°52' E 029°11'0 0.1
2016-Nov-28 13:22N 40°52' E 029°11'0 0.0
2016-Nov-28 12:21N 40°52' E 029°11'0 0.0
2016-Nov-28 11:33N 40°52' E 029°11'0 0.0
2016-Nov-28 10:12N 40°52' E 029°11'0 0.0
2016-Nov-28 09:30N 40°52' E 029°11'0 0.0
2016-Nov-28 08:28N 40°52' E 029°11'0 0.0
2016-Nov-28 07:30N 40°52' E 029°11'0 0.0
2016-Nov-28 06:32N 40°52' E 029°11'0 0.0
2016-Nov-28 05:22N 40°52' E 029°11'0 0.0
2016-Nov-28 04:29N 40°52' E 029°11'0 0.1
2016-Nov-28 03:17N 40°52' E 029°11'0 0.1
2016-Nov-28 02:24N 40°52' E 029°11'0 0.1
2016-Nov-28 01:31N 40°52' E 029°11'0 0.1
2016-Nov-28 00:27N 40°52' E 029°11'0 0.0
2016-Nov-27 23:31N 40°52' E 029°11'0 0.0
2016-Nov-27 22:32N 40°52' E 029°11'0 0.0
2016-Nov-27 21:33N 40°52' E 029°11'0 0.0
2016-Nov-27 20:33N 40°52' E 029°11'0 0.0
2016-Nov-27 19:22N 40°52' E 029°11'0 0.0
2016-Nov-26 18:33N 40°52' E 029°11'0 0.0
2016-Nov-26 17:30N 40°52' E 029°11'0 0.0
2016-Nov-26 16:25N 40°52' E 029°11'0 0.0
2016-Nov-26 15:29N 40°52' E 029°11'  
Track history (hours):
 
Tides and Currents Weather Stations Pressure Air Temp Water Temp Dewpoint Dewpoint Depression Visibility Wind Speed Wind Dir Waves Ship Positions

Sukran S

Last reported at 2016-Dec-01 14:05 UTC. Time now 2016-Dec-05 00:24 UTC.
Position N 40°60' E 029°00'.

Length 108 m; draft 5.8 m.

Type: Cargo ship. MMSI: 271000056.

Date/timePositionNaut miles runAvg speedWind from/ knotsBaromVisibWave heightAir tempDewpointWater temp
2016-Dec-01 14:05N 40°60' E 029°00'3 5.4
2016-Dec-01 13:31N 40°57' E 029°01'6 6.5
2016-Dec-01 12:33N 40°53' E 029°08'2 1.6
2016-Dec-01 11:29N 40°53' E 029°10'0 0.0
2016-Dec-01 10:28N 40°53' E 029°10'0 0.0
2016-Dec-01 09:29N 40°53' E 029°10'0 0.0
2016-Dec-01 08:30N 40°53' E 029°10'0 0.0
2016-Dec-01 07:31N 40°53' E 029°10'0 0.0
2016-Dec-01 06:12N 40°53' E 029°10'0 0.0
2016-Dec-01 05:31N 40°53' E 029°10'0 0.0
2016-Dec-01 04:17N 40°53' E 029°10'0 0.1
2016-Dec-01 03:30N 40°53' E 029°10'0 0.0
2016-Dec-01 02:26N 40°53' E 029°10'0 0.0
2016-Dec-01 00:29N 40°53' E 029°10'4 4.5
2016-Nov-30 23:34N 40°49' E 029°08'9 8.6
2016-Nov-30 22:34N 40°44' E 028°59'18 5.6
2016-Nov-30 19:22N 40°26' E 029°00'4 2.0
2016-Nov-30 17:27N 40°25' E 029°05'0 0.0
2016-Nov-30 16:32N 40°25' E 029°05'0 0.0
2016-Nov-30 14:13N 40°25' E 029°05'0 0.0
2016-Nov-30 13:14N 40°25' E 029°05'0 0.0
2016-Nov-30 11:29N 40°25' E 029°05'0 0.0
2016-Nov-30 07:25N 40°25' E 029°05'0 0.0
2016-Nov-30 06:08N 40°25' E 029°05'0 0.0
2016-Nov-30 05:24N 40°25' E 029°05'0 0.0
2016-Nov-30 04:30N 40°25' E 029°05'0 0.0
2016-Nov-30 03:12N 40°25' E 029°05'0 0.0
2016-Nov-30 01:09N 40°25' E 029°05'0 0.0
2016-Nov-29 23:27N 40°25' E 029°05'0 0.0
2016-Nov-29 22:33N 40°25' E 029°05'0 0.0
2016-Nov-29 17:05N 40°25' E 029°05'0 0.0
2016-Nov-29 16:08N 40°25' E 029°05'0 0.0
2016-Nov-29 15:26N 40°25' E 029°05'0 0.0
2016-Nov-29 09:29N 40°25' E 029°05'0 0.0
2016-Nov-29 07:30N 40°25' E 029°05'0 0.0
2016-Nov-29 06:33N 40°25' E 029°05'0 0.0
2016-Nov-29 05:20N 40°25' E 029°05'0 0.0
2016-Nov-29 04:26N 40°25' E 029°05'0 0.0
2016-Nov-29 03:32N 40°25' E 029°05'0 0.0
2016-Nov-29 02:18N 40°25' E 029°05'0 0.0
2016-Nov-29 00:22N 40°25' E 029°05'16 5.6
2016-Nov-28 21:31N 40°37' E 028°52'1111.3
2016-Nov-28 20:34N 40°45' E 029°02'1010.0
2016-Nov-28 19:33N 40°52' E 029°11'0 0.1
2016-Nov-28 18:33N 40°52' E 029°11'0 0.0
2016-Nov-28 17:32N 40°52' E 029°11'0 0.0
2016-Nov-28 16:17N 40°52' E 029°11'0 0.0
2016-Nov-28 15:15N 40°52' E 029°11'0 0.0
2016-Nov-28 14:30N 40°52' E 029°11'0 0.1
2016-Nov-28 13:22N 40°52' E 029°11'0 0.0
2016-Nov-28 12:21N 40°52' E 029°11'0 0.0
2016-Nov-28 11:33N 40°52' E 029°11'0 0.0
2016-Nov-28 10:12N 40°52' E 029°11'0 0.0
2016-Nov-28 09:30N 40°52' E 029°11'0 0.0
2016-Nov-28 08:28N 40°52' E 029°11'0 0.0
2016-Nov-28 07:30N 40°52' E 029°11'0 0.0
2016-Nov-28 06:32N 40°52' E 029°11'0 0.0
2016-Nov-28 05:22N 40°52' E 029°11'0 0.0
2016-Nov-28 04:29N 40°52' E 029°11'0 0.1
2016-Nov-28 03:17N 40°52' E 029°11'0 0.1
2016-Nov-28 02:24N 40°52' E 029°11'0 0.1
2016-Nov-28 01:31N 40°52' E 029°11'0 0.1
2016-Nov-28 00:27N 40°52' E 029°11'0 0.0
2016-Nov-27 23:31N 40°52' E 029°11'0 0.0
2016-Nov-27 22:32N 40°52' E 029°11'0 0.0
2016-Nov-27 21:33N 40°52' E 029°11'0 0.0
2016-Nov-27 20:33N 40°52' E 029°11'0 0.0
2016-Nov-27 19:22N 40°52' E 029°11'0 0.0
2016-Nov-26 18:33N 40°52' E 029°11'0 0.0
2016-Nov-26 17:30N 40°52' E 029°11'0 0.0
2016-Nov-26 16:25N 40°52' E 029°11'0 0.0
2016-Nov-26 15:29N 40°52' E 029°11'  

Dump ship's entire track history